createdAt,value
2022-10-10T00:24:03.010Z,379.20
2022-10-10T00:26:29.913Z,379.75
2022-10-10T00:28:56.774Z,381.90
2022-10-10T00:31:23.729Z,377.60
2022-10-10T00:33:50.651Z,374.38
2022-10-10T00:36:17.305Z,379.02
2022-10-10T00:38:43.878Z,381.08
2022-10-10T00:41:10.538Z,384.77
2022-10-10T00:43:37.607Z,383.33
2022-10-10T00:46:04.441Z,381.95
2022-10-10T00:48:39.514Z,378.98
2022-10-10T00:51:12.616Z,380.70
2022-10-10T00:54:07.934Z,372.40
2022-10-10T00:56:39.890Z,406.33
2022-10-10T00:59:11.041Z,387.95
2022-10-10T01:01:39.331Z,381.65
2022-10-10T01:04:06.428Z,378.65
2022-10-10T01:06:34.683Z,372.70
2022-10-10T01:09:01.251Z,377.95
2022-10-10T01:11:39.931Z,373.80
2022-10-10T01:14:23.772Z,372.08
2022-10-10T01:16:58.058Z,374.73
2022-10-10T01:19:34.814Z,365.40
2022-10-10T01:22:07.041Z,373.77
2022-10-10T01:24:52.236Z,370.27
2022-10-10T01:27:28.926Z,367.73
2022-10-10T01:29:59.840Z,376.27
2022-10-10T01:32:40.119Z,363.98
2022-10-10T01:35:23.998Z,371.33
2022-10-10T01:37:59.738Z,366.77
2022-10-10T01:40:42.567Z,365.08
2022-10-10T01:43:11.459Z,366.13
2022-10-10T01:45:38.111Z,366.50
2022-10-10T01:48:07.426Z,366.33
2022-10-10T01:50:42.722Z,369.58
2022-10-10T01:54:01.834Z,371.08
2022-10-10T01:56:46.873Z,364.30
2022-10-10T01:59:25.513Z,374.40
2022-10-10T02:02:08.667Z,372.77
2022-10-10T02:04:58.988Z,364.65
2022-10-10T02:07:37.873Z,374.88
2022-10-10T02:10:07.617Z,383.08
2022-10-10T02:12:36.174Z,383.48
2022-10-10T02:15:14.205Z,378.70
2022-10-10T02:17:43.662Z,378.48
2022-10-10T02:20:13.457Z,376.23
2022-10-10T02:22:42.946Z,374.05
2022-10-10T02:25:09.763Z,382.10
2022-10-10T02:27:47.808Z,381.60
2022-10-10T02:30:15.619Z,374.75
2022-10-10T02:32:45.365Z,378.42
2022-10-10T02:35:18.172Z,367.50
2022-10-10T02:37:47.032Z,368.38
2022-10-10T02:40:20.641Z,362.92
2022-10-10T02:42:49.292Z,362.30
2022-10-10T02:45:17.752Z,361.60
2022-10-10T02:47:44.940Z,367.80
2022-10-10T02:50:11.667Z,367.75
2022-10-10T02:52:38.623Z,363.23
2022-10-10T02:55:05.818Z,365.03
2022-10-10T02:57:32.437Z,359.85
2022-10-10T02:59:58.996Z,364.77
2022-10-10T03:02:25.582Z,376.63
2022-10-10T03:04:52.281Z,385.58
2022-10-10T03:07:19.086Z,382.63
2022-10-10T03:09:45.650Z,373.63
2022-10-10T03:12:12.449Z,379.73
2022-10-10T03:14:39.012Z,381.48
2022-10-10T03:17:05.634Z,379.73
2022-10-10T03:19:32.287Z,375.33
2022-10-10T03:21:58.876Z,369.00
2022-10-10T03:24:26.078Z,368.60
2022-10-10T03:26:52.689Z,356.55
2022-10-10T03:29:19.309Z,359.13
2022-10-10T03:31:45.857Z,352.98
2022-10-10T03:34:12.437Z,355.30
2022-10-10T03:36:38.994Z,354.92
2022-10-10T03:39:05.669Z,351.00
2022-10-10T03:41:32.346Z,348.90
2022-10-10T03:43:59.020Z,344.48
2022-10-10T03:46:25.680Z,350.37
2022-10-10T03:48:52.265Z,350.52
2022-10-10T03:51:18.935Z,349.15
2022-10-10T03:53:45.527Z,360.15
2022-10-10T03:56:12.320Z,349.98
2022-10-10T03:58:38.892Z,357.70
2022-10-10T04:01:05.845Z,357.87
2022-10-10T04:03:32.494Z,346.55
2022-10-10T04:05:59.762Z,350.48
2022-10-10T04:08:26.606Z,348.23
2022-10-10T04:10:54.638Z,345.20
2022-10-10T04:13:25.878Z,351.10
2022-10-10T04:15:54.019Z,348.33
2022-10-10T04:18:21.189Z,343.48
2022-10-10T04:20:47.744Z,347.73
2022-10-10T04:23:14.352Z,350.38
2022-10-10T04:25:41.797Z,346.05
2022-10-10T04:28:12.245Z,362.30
2022-10-10T04:30:38.860Z,363.45
2022-10-10T04:33:05.377Z,367.55
2022-10-10T04:35:31.994Z,372.43
2022-10-10T04:37:58.711Z,374.42
2022-10-10T04:40:26.777Z,364.42
2022-10-10T04:42:54.600Z,370.25
2022-10-10T04:45:21.191Z,368.48
2022-10-10T04:47:47.699Z,364.33
2022-10-10T04:50:14.282Z,360.02
2022-10-10T04:52:40.844Z,357.98
2022-10-10T04:55:07.731Z,355.15
2022-10-10T04:57:34.359Z,360.88
2022-10-10T05:00:00.949Z,367.50
2022-10-10T05:02:27.625Z,361.70
2022-10-10T05:04:54.246Z,355.58
2022-10-10T05:07:21.328Z,341.77
2022-10-10T05:09:47.883Z,345.25
2022-10-10T05:12:14.515Z,349.90
2022-10-10T05:14:44.604Z,343.30
2022-10-10T05:17:14.003Z,341.73
2022-10-10T05:19:40.610Z,339.92
2022-10-10T05:22:07.322Z,360.80
2022-10-10T05:24:34.693Z,362.67
2022-10-10T05:27:01.204Z,354.57
2022-10-10T05:29:27.744Z,361.48
2022-10-10T05:31:54.316Z,345.52
2022-10-10T05:34:20.845Z,352.58
2022-10-10T05:36:47.381Z,337.25
2022-10-10T05:39:13.987Z,335.70
2022-10-10T05:41:40.605Z,347.05
2022-10-10T05:44:07.263Z,349.30
2022-10-10T05:46:33.926Z,342.20
2022-10-10T05:49:00.445Z,343.17
2022-10-10T05:51:27.157Z,352.10
2022-10-10T05:53:53.709Z,354.27
2022-10-10T05:56:20.251Z,342.55
2022-10-10T05:58:46.949Z,344.03
2022-10-10T06:01:13.550Z,341.98
2022-10-10T06:03:40.129Z,346.65
2022-10-10T06:06:07.410Z,356.67
2022-10-10T06:08:34.301Z,350.80
2022-10-10T06:11:07.998Z,345.88
2022-10-10T06:13:34.936Z,345.23
2022-10-10T06:16:01.661Z,345.57
2022-10-10T06:18:28.206Z,344.75
2022-10-10T06:20:55.035Z,329.58
2022-10-10T06:23:21.832Z,323.10
2022-10-10T06:25:51.645Z,331.73
2022-10-10T06:28:18.222Z,328.88
2022-10-10T06:30:45.283Z,326.13
2022-10-10T06:33:12.612Z,321.17
2022-10-10T06:35:41.791Z,317.35
2022-10-10T06:38:08.689Z,322.77
2022-10-10T06:40:35.535Z,322.42
2022-10-10T06:43:02.145Z,316.77
2022-10-10T06:45:28.836Z,314.33
2022-10-10T06:47:55.500Z,324.58
2022-10-10T06:50:22.264Z,311.77
2022-10-10T06:52:49.247Z,319.70
2022-10-10T06:55:16.115Z,317.65
2022-10-10T06:57:42.686Z,323.10
2022-10-10T07:00:10.182Z,323.08
2022-10-10T07:02:40.630Z,325.55
2022-10-10T07:05:11.777Z,313.25
2022-10-10T07:07:39.397Z,313.13
2022-10-10T07:10:07.111Z,315.70
2022-10-10T07:12:39.600Z,317.52
2022-10-10T07:15:10.285Z,318.85
2022-10-10T07:17:37.053Z,306.88
2022-10-10T07:20:03.893Z,309.88
2022-10-10T07:22:30.409Z,275.73
2022-10-10T07:24:57.091Z,291.90
2022-10-10T07:27:23.591Z,290.27
2022-10-10T07:29:50.121Z,287.98
2022-10-10T07:32:16.696Z,266.30
2022-10-10T07:34:43.332Z,272.67
2022-10-10T07:37:09.882Z,281.17
2022-10-10T07:39:36.503Z,267.67
2022-10-10T07:42:03.102Z,250.68
2022-10-10T07:44:34.281Z,256.73
2022-10-10T07:47:01.479Z,248.98
2022-10-10T07:49:28.293Z,254.95
2022-10-10T07:51:58.860Z,238.38
2022-10-10T07:54:27.301Z,243.48
2022-10-10T07:56:53.928Z,240.23
2022-10-10T07:59:20.602Z,230.73
2022-10-10T08:01:47.400Z,237.85
2022-10-10T08:04:14.113Z,233.30
2022-10-10T08:06:40.658Z,237.85
2022-10-10T08:09:07.242Z,232.73
2022-10-10T08:11:36.455Z,229.97
2022-10-10T08:14:03.499Z,227.45
2022-10-10T08:16:30.082Z,221.70
2022-10-10T08:18:56.709Z,229.15
2022-10-10T08:21:23.492Z,222.13
2022-10-10T08:23:50.129Z,219.53
2022-10-10T08:26:18.098Z,224.27
2022-10-10T08:28:45.253Z,223.57
2022-10-10T08:31:14.915Z,212.88
2022-10-10T08:33:43.376Z,221.95
2022-10-10T08:36:19.273Z,226.77
2022-10-10T08:38:46.635Z,209.20
2022-10-10T08:41:40.068Z,210.45
2022-10-10T08:44:29.931Z,198.15
2022-10-10T08:47:07.508Z,196.20
2022-10-10T08:50:01.832Z,188.05
2022-10-10T08:52:48.866Z,162.95
2022-10-10T08:55:21.770Z,126.50
2022-10-10T08:57:52.846Z,89.72
2022-10-10T09:00:22.534Z,60.35
2022-10-10T09:02:54.556Z,28.98
2022-10-10T09:05:40.303Z,12.50
2022-10-10T09:08:35.895Z,8.30
2022-10-10T09:11:20.927Z,5.47
2022-10-10T09:13:53.456Z,4.15
2022-10-10T09:16:46.549Z,4.00
2022-10-10T09:19:34.794Z,3.13
2022-10-10T09:22:11.119Z,3.58
2022-10-10T09:24:44.569Z,3.70
2022-10-10T09:27:24.869Z,3.75
2022-10-10T09:30:17.627Z,3.72
2022-10-10T09:33:19.663Z,3.65
2022-10-10T09:35:48.413Z,3.30
2022-10-10T09:38:41.457Z,3.40
2022-10-10T09:41:14.919Z,3.70
2022-10-10T09:43:42.012Z,3.28
2022-10-10T09:46:13.206Z,3.42
2022-10-10T09:48:42.066Z,3.65
2022-10-10T09:51:18.297Z,3.83
2022-10-10T09:53:47.749Z,3.40
2022-10-10T09:56:18.118Z,3.42
2022-10-10T09:58:47.724Z,3.75
2022-10-10T10:01:24.808Z,3.90
2022-10-10T10:04:27.717Z,3.30
2022-10-10T10:07:16.082Z,3.17
2022-10-10T10:09:47.882Z,3.60
2022-10-10T10:12:17.820Z,3.38
2022-10-10T10:14:44.435Z,3.53
2022-10-10T10:17:15.054Z,3.63
2022-10-10T10:19:45.649Z,3.58
2022-10-10T10:22:33.097Z,3.03
2022-10-10T10:25:20.843Z,3.50
2022-10-10T10:27:47.460Z,3.35
2022-10-10T10:30:25.650Z,3.58
2022-10-10T10:33:07.650Z,3.50
2022-10-10T10:35:56.324Z,3.63
2022-10-10T10:38:34.364Z,3.20
2022-10-10T10:41:21.467Z,3.50
2022-10-10T10:44:01.017Z,3.37
2022-10-10T10:46:46.565Z,3.47
2022-10-10T10:49:25.523Z,3.13
2022-10-10T10:52:20.974Z,2.90
2022-10-10T10:55:11.979Z,3.10
2022-10-10T10:58:10.362Z,3.30
2022-10-10T11:01:23.641Z,3.58
2022-10-10T11:05:20.936Z,3.20
2022-10-10T11:07:20.679Z,2.90
2022-10-10T11:09:54.230Z,3.33
2022-10-10T11:12:47.268Z,3.50
2022-10-10T11:15:23.650Z,2.95
2022-10-10T11:18:00.263Z,3.60
2022-10-10T11:20:39.161Z,4.05
2022-10-10T11:23:13.095Z,3.30
2022-10-10T11:25:43.424Z,3.50
2022-10-10T11:28:22.347Z,3.47
2022-10-10T11:30:59.683Z,3.65
2022-10-10T11:34:01.873Z,3.50
2022-10-10T11:36:31.719Z,3.88
2022-10-10T11:39:30.292Z,3.78
2022-10-10T11:42:03.377Z,3.80
2022-10-10T11:45:02.268Z,3.75
2022-10-10T11:47:59.305Z,4.00
2022-10-10T11:50:29.340Z,3.60
2022-10-10T11:53:34.206Z,3.90
2022-10-10T11:56:18.435Z,4.30
2022-10-10T11:58:50.849Z,4.00
2022-10-10T12:01:42.058Z,4.28
2022-10-10T12:04:08.704Z,4.20
2022-10-10T12:07:07.156Z,4.60
2022-10-10T12:09:39.593Z,4.10
2022-10-10T12:12:08.911Z,4.70
2022-10-10T12:14:39.612Z,4.40
2022-10-10T12:17:20.180Z,4.50
2022-10-10T12:19:50.264Z,4.23
2022-10-10T12:22:30.944Z,4.50
2022-10-10T12:25:23.549Z,4.45
2022-10-10T12:28:15.226Z,4.50
2022-10-10T12:31:05.270Z,4.13
2022-10-10T12:33:32.702Z,4.20
2022-10-10T12:36:28.237Z,4.00
2022-10-10T12:39:06.187Z,3.85
2022-10-10T12:41:46.995Z,3.78
2022-10-10T12:44:53.484Z,3.60
2022-10-10T12:48:00.268Z,3.33
2022-10-10T12:50:34.008Z,3.33
2022-10-10T12:53:18.337Z,3.20
2022-10-10T12:55:49.009Z,4.10
2022-10-10T12:58:27.469Z,3.15
2022-10-10T13:00:59.727Z,3.17
2022-10-10T13:03:42.441Z,3.40
2022-10-10T13:06:33.314Z,3.38
2022-10-10T13:09:02.571Z,3.67
2022-10-10T13:11:29.197Z,3.50
2022-10-10T13:13:57.223Z,3.80
2022-10-10T13:16:33.653Z,3.70
2022-10-10T13:19:01.024Z,4.10
2022-10-10T13:21:32.062Z,3.60
2022-10-10T13:24:03.712Z,3.77
2022-10-10T13:26:50.110Z,3.42
2022-10-10T13:29:26.249Z,3.50
2022-10-10T13:31:55.264Z,3.92
2022-10-10T13:34:27.463Z,3.50
2022-10-10T13:36:59.513Z,3.40
2022-10-10T13:39:28.641Z,3.93
2022-10-10T13:41:56.080Z,4.32
2022-10-10T13:44:26.179Z,4.15
2022-10-10T13:46:52.801Z,4.30
2022-10-10T13:49:24.499Z,4.80
2022-10-10T13:52:05.504Z,7.97
2022-10-10T13:54:42.542Z,12.52
2022-10-10T13:57:26.894Z,6.07
2022-10-10T14:00:05.425Z,9.18
2022-10-10T14:02:36.080Z,6.18
2022-10-10T14:05:18.961Z,9.02
2022-10-10T14:44:27.498Z,4.30
2022-10-10T14:46:54.166Z,4.50
2022-10-10T14:49:21.620Z,4.57
2022-10-10T14:51:48.637Z,4.57
2022-10-10T14:54:15.784Z,9.65
2022-10-10T14:57:07.195Z,11.13
2022-10-10T14:59:48.126Z,11.20
2022-10-10T15:02:20.944Z,21.15
2022-10-10T15:04:48.642Z,16.30
2022-10-10T15:07:16.600Z,5.40
2022-10-10T15:10:17.578Z,5.27
2022-10-10T15:12:32.666Z,6.30
2022-10-10T15:14:59.513Z,5.78
2022-10-10T17:01:05.700Z,152.73
2022-10-10T17:03:32.758Z,155.43
2022-10-10T17:06:09.678Z,160.05
2022-10-10T17:08:36.842Z,156.80
2022-10-10T17:11:04.056Z,159.75
2022-10-10T17:13:31.340Z,166.40
2022-10-10T17:16:08.743Z,179.15
2022-10-10T17:18:44.778Z,194.15
2022-10-10T17:21:14.279Z,193.90
2022-10-10T17:23:41.066Z,192.45
2022-10-10T17:26:10.601Z,201.25
2022-10-10T17:28:38.037Z,205.35
2022-10-10T17:31:10.082Z,200.65
2022-10-10T17:33:37.625Z,207.00
2022-10-10T17:36:16.781Z,208.82
2022-10-10T17:38:44.377Z,219.13
2022-10-10T17:41:12.866Z,231.80
2022-10-10T17:43:39.686Z,252.73
2022-10-10T17:46:33.200Z,254.67
2022-10-10T17:48:56.893Z,253.35
2022-10-10T17:51:23.914Z,242.40
2022-10-10T17:53:52.461Z,240.48
2022-10-10T17:56:21.532Z,243.00
2022-10-10T17:58:49.571Z,260.10
2022-10-10T18:01:20.862Z,264.63
2022-10-10T18:03:48.521Z,246.05
2022-10-10T18:06:18.017Z,244.95
2022-10-10T18:08:46.950Z,271.95
2022-10-10T18:11:20.076Z,276.50
2022-10-10T18:13:47.382Z,258.58
2022-10-10T18:16:22.877Z,258.58
2022-10-10T18:18:51.879Z,268.27
2022-10-10T18:21:23.562Z,242.50
2022-10-10T18:23:50.668Z,256.17
2022-10-10T18:26:20.484Z,265.27
2022-10-10T18:28:47.705Z,255.30
2022-10-10T18:31:22.725Z,263.13
2022-10-10T18:33:50.146Z,272.05
2022-10-10T18:36:19.452Z,272.67
2022-10-10T18:38:46.907Z,252.70
2022-10-10T18:41:19.334Z,265.13
2022-10-10T19:21:38.563Z,316.13
2022-10-10T19:24:08.409Z,306.85
2022-10-10T19:26:36.563Z,306.95
2022-10-10T19:29:07.252Z,302.15
2022-10-10T20:28:10.475Z,352.80
2022-10-10T20:30:42.869Z,373.45
2022-10-10T20:33:09.479Z,378.83
2022-10-10T20:35:37.019Z,422.02
2022-10-10T20:38:04.851Z,410.65
2022-10-10T20:40:31.635Z,422.60
2022-10-10T20:42:58.202Z,411.55
2022-10-10T20:45:24.842Z,409.92
2022-10-10T20:47:51.341Z,413.90
2022-10-10T20:50:17.975Z,402.77
2022-10-10T20:52:44.494Z,397.25
2022-10-10T20:55:11.379Z,407.13
2022-10-10T20:57:38.032Z,414.30
2022-10-10T21:00:05.826Z,405.90
2022-10-10T21:02:32.468Z,401.23
2022-10-10T21:04:59.354Z,385.15
2022-10-10T21:07:28.353Z,371.00
2022-10-10T21:09:54.967Z,399.80
2022-10-10T21:12:21.588Z,531.17
2022-10-10T21:14:48.157Z,590.55
2022-10-10T21:17:14.682Z,595.38
2022-10-10T21:19:41.316Z,603.53
2022-10-10T21:22:07.945Z,599.15
2022-10-10T21:24:34.501Z,587.70
2022-10-10T21:27:01.276Z,589.33
2022-10-10T21:29:27.888Z,586.88
2022-10-10T21:31:54.417Z,580.17
2022-10-10T21:34:21.039Z,540.53
2022-10-10T21:36:47.836Z,552.63
2022-10-10T21:39:15.040Z,553.22
2022-10-10T21:41:41.735Z,398.00
2022-10-10T21:44:10.277Z,385.63
2022-10-10T21:46:37.347Z,383.83
2022-10-10T21:49:08.757Z,374.23
2022-10-10T21:51:41.769Z,370.35
2022-10-10T21:54:09.630Z,367.60
2022-10-10T21:56:36.844Z,374.55
2022-10-10T21:59:04.647Z,379.83
2022-10-10T22:01:33.171Z,397.67
2022-10-10T22:04:02.467Z,399.37
2022-10-10T22:06:30.459Z,393.63
2022-10-10T22:08:59.080Z,405.75
2022-10-10T22:11:28.321Z,391.83
2022-10-10T22:13:55.426Z,385.77
2022-10-10T22:16:22.722Z,386.38
2022-10-10T22:18:54.413Z,400.90
2022-10-10T22:21:21.403Z,391.75
2022-10-10T22:23:48.536Z,386.23
2022-10-10T22:26:18.946Z,389.98
2022-10-10T22:28:48.809Z,405.83
2022-10-10T22:31:37.926Z,399.50
2022-10-10T22:34:06.044Z,385.45
2022-10-10T22:36:32.798Z,380.65
2022-10-10T22:38:59.496Z,395.52
2022-10-10T22:41:26.105Z,401.98
2022-10-10T22:43:52.729Z,402.65
2022-10-10T22:46:19.295Z,399.60
2022-10-10T22:48:46.130Z,381.83
2022-10-10T22:51:16.203Z,389.13
2022-10-10T22:53:44.061Z,383.65
2022-10-10T22:56:12.045Z,402.30
2022-10-10T22:58:38.678Z,402.67
2022-10-10T23:01:11.154Z,406.08
2022-10-10T23:03:37.826Z,387.90
2022-10-10T23:06:04.916Z,397.27
2022-10-10T23:08:32.016Z,394.60
2022-10-10T23:10:58.858Z,391.40
2022-10-10T23:13:25.733Z,404.83
2022-10-10T23:15:52.410Z,398.60
2022-10-10T23:18:19.033Z,401.67
2022-10-10T23:20:47.175Z,393.40
2022-10-10T23:23:15.023Z,402.38
2022-10-10T23:25:43.421Z,401.35
2022-10-10T23:28:12.418Z,419.42
2022-10-10T23:30:43.292Z,415.38
2022-10-10T23:33:10.836Z,417.00
2022-10-10T23:35:37.971Z,428.38
2022-10-10T23:38:04.912Z,428.90
2022-10-10T23:40:34.190Z,423.58
2022-10-10T23:43:00.933Z,415.98
2022-10-10T23:45:27.402Z,420.60
2022-10-10T23:47:53.992Z,419.75
2022-10-10T23:50:20.521Z,419.92
2022-10-10T23:52:47.190Z,434.63
2022-10-10T23:55:13.648Z,421.53
2022-10-10T23:57:40.276Z,429.00
